Time;durP1;ratioP1;P1;durP2;ratioP2;P2;SDS_P1;SDS_P2;PMS_P1;PMS_P2;Temp;Humidity;BMP_temperature;BMP_pressure;BME280_temperature;BME280_humidity;BME280_pressure;Samples;Min_cycle;Max_cycle;Signal;HPM_P1;HPM_P2
2021/12/27 00:01:28;;;;;;;6.45;4.82;;;;;;;1.95;80.50;96218.94;5114521;28;20031;-64
2021/12/27 00:03:56;;;;;;;10.55;5.05;;;;;;;1.94;80.67;96216.38;5114525;28;20012;-63
2021/12/27 00:06:22;;;;;;;10.63;7.20;;;;;;;1.92;80.60;96213.81;5114668;28;20103;-64
2021/12/27 00:08:49;;;;;;;10.18;5.95;;;;;;;1.96;80.67;96219.81;5114505;28;20050;-65
2021/12/27 00:11:17;;;;;;;5.20;3.70;;;;;;;1.94;80.46;96218.97;5114220;27;20027;-66
2021/12/27 00:13:43;;;;;;;6.53;4.45;;;;;;;1.91;80.47;96225.00;5114376;28;20381;-66
2021/12/27 00:16:09;;;;;;;11.13;4.80;;;;;;;1.87;80.78;96231.91;5114471;28;20034;-66
2021/12/27 00:18:35;;;;;;;4.78;3.75;;;;;;;1.90;80.89;96231.03;5114369;27;20106;-65
2021/12/27 00:21:01;;;;;;;7.13;4.80;;;;;;;1.76;82.07;96238.88;5114078;27;20141;-65
2021/12/27 00:23:27;;;;;;;9.95;4.55;;;;;;;1.76;81.92;96234.59;5113751;28;20044;-66
2021/12/27 00:25:53;;;;;;;6.00;4.97;;;;;;;1.80;81.59;96222.50;5114294;28;20502;-65
2021/12/27 00:28:18;;;;;;;6.80;4.30;;;;;;;1.75;82.23;96221.72;5114283;28;20050;-64
2021/12/27 00:30:45;;;;;;;8.35;4.50;;;;;;;1.75;82.03;96217.38;5114089;28;20028;-68
2021/12/27 00:33:11;;;;;;;5.38;3.08;;;;;;;1.81;81.77;96218.22;5113866;28;20051;-67
2021/12/27 00:35:37;;;;;;;4.88;3.05;;;;;;;1.81;81.42;96216.50;5113872;28;20027;-67
2021/12/27 00:38:04;;;;;;;5.35;3.35;;;;;;;1.85;81.15;96219.91;5113870;28;20540;-65
2021/12/27 00:40:30;;;;;;;4.53;3.83;;;;;;;1.83;80.94;96211.31;5114003;28;20016;-67
2021/12/27 00:42:56;;;;;;;7.15;4.38;;;;;;;1.76;81.53;96213.09;5113919;28;20031;-63
2021/12/27 00:45:22;;;;;;;5.78;4.28;;;;;;;1.74;82.57;96212.25;5113943;28;20023;-65
2021/12/27 00:47:49;;;;;;;5.97;3.78;;;;;;;1.77;82.42;96209.63;5113724;28;20495;-64
2021/12/27 00:50:15;;;;;;;5.72;4.30;;;;;;;1.86;82.79;96208.69;5113708;28;20477;-65
2021/12/27 00:52:40;;;;;;;4.97;4.00;;;;;;;1.93;82.35;96209.50;5113726;28;20042;-64
2021/12/27 00:55:09;;;;;;;4.88;3.25;;;;;;;1.98;81.90;96211.19;5113756;28;20035;-67
2021/12/27 00:57:35;;;;;;;7.38;4.13;;;;;;;2.01;81.90;96215.44;5112444;28;20381;-63
2021/12/27 01:00:01;;;;;;;6.05;4.00;;;;;;;1.94;81.46;96208.63;5112410;28;20355;-64
2021/12/27 01:02:26;;;;;;;9.40;3.30;;;;;;;1.95;81.57;96205.19;5113842;27;20041;-68
2021/12/27 01:04:52;;;;;;;7.60;4.32;;;;;;;1.95;81.72;96211.19;5113686;28;20024;-65
2021/12/27 01:07:18;;;;;;;8.38;4.10;;;;;;;1.99;81.49;96215.47;5113693;28;20020;-66
2021/12/27 01:15:10;;;;;;;8.25;5.20;;;;;;;2.04;82.17;96207.69;5113754;28;20027;-63
2021/12/27 01:17:37;;;;;;;8.80;4.93;;;;;;;2.00;82.62;96198.25;5113625;28;20038;-62
2021/12/27 01:20:05;;;;;;;10.13;6.63;;;;;;;2.05;82.61;96195.66;5113641;28;20019;-62
2021/12/27 01:22:31;;;;;;;7.32;4.50;;;;;;;2.11;82.79;96203.34;5113394;28;20042;-66
2021/12/27 01:24:58;;;;;;;4.32;3.17;;;;;;;2.16;82.63;96204.13;5113235;28;20059;-66
2021/12/27 01:27:24;;;;;;;5.32;3.88;;;;;;;2.15;82.40;96207.59;5113399;28;20435;-63
2021/12/27 01:29:50;;;;;;;5.03;3.70;;;;;;;2.17;82.24;96211.03;5113491;28;20023;-67
2021/12/27 01:32:16;;;;;;;4.50;3.88;;;;;;;2.27;82.55;96220.38;5112014;28;20027;-62
2021/12/27 01:34:42;;;;;;;7.68;3.53;;;;;;;2.34;82.36;96228.91;5115879;28;20065;-65
2021/12/27 01:37:08;;;;;;;7.43;4.80;;;;;;;2.27;82.19;96219.50;5117313;28;20392;-64
2021/12/27 01:39:33;;;;;;;7.90;5.20;;;;;;;2.19;83.35;96219.59;5117291;28;20016;-65
2021/12/27 01:41:59;;;;;;;14.32;6.78;;;;;;;2.24;83.94;96222.13;5117550;28;20012;-62
2021/12/27 01:44:25;;;;;;;9.00;5.45;;;;;;;2.25;83.73;96213.50;5117275;28;20020;-65
2021/12/27 01:46:53;;;;;;;7.55;6.18;;;;;;;2.27;83.17;96207.47;5117423;28;20022;-66
2021/12/27 01:49:18;;;;;;;8.20;4.10;;;;;;;2.26;83.70;96199.75;5117199;28;20031;-66
2021/12/27 01:51:44;;;;;;;4.85;4.18;;;;;;;2.25;83.40;96203.19;5117066;28;20020;-66
2021/12/27 01:54:10;;;;;;;4.50;3.42;;;;;;;2.26;83.46;96200.56;5117100;27;20053;-65
2021/12/27 01:56:36;;;;;;;4.93;3.67;;;;;;;2.15;83.33;96192.09;5117065;28;20478;-64
2021/12/27 01:59:01;;;;;;;7.05;3.95;;;;;;;2.05;83.59;96181.03;5117128;28;20019;-65
2021/12/27 02:01:27;;;;;;;9.13;3.92;;;;;;;2.08;83.90;96182.72;5116958;28;20116;-66
2021/12/27 02:03:54;;;;;;;4.50;3.25;;;;;;;2.14;83.84;96177.50;5116952;28;20176;-66
2021/12/27 02:06:20;;;;;;;4.85;3.75;;;;;;;2.21;83.97;96176.56;5116908;28;20095;-69
2021/12/27 02:08:46;;;;;;;6.32;3.55;;;;;;;2.16;83.67;96185.22;5116813;28;20084;-68
2021/12/27 02:11:14;;;;;;;5.57;3.55;;;;;;;2.19;84.35;96183.44;5116802;28;20061;-68
2021/12/27 02:13:44;;;;;;;4.65;3.53;;;;;;;2.25;83.87;96188.56;5116682;28;20026;-65
2021/12/27 02:16:20;;;;;;;6.10;4.03;;;;;;;2.30;84.40;96179.91;5116721;28;20029;-66
2021/12/27 02:18:48;;;;;;;5.80;4.90;;;;;;;2.33;84.64;96182.44;5116687;28;20141;-67
2021/12/27 02:21:14;;;;;;;6.97;4.75;;;;;;;2.46;84.27;96184.03;5116480;28;20099;-63
2021/12/27 02:23:41;;;;;;;9.05;3.95;;;;;;;2.48;83.91;96184.88;5116369;28;20032;-64
2021/12/27 02:26:07;;;;;;;8.68;4.43;;;;;;;2.47;83.25;96182.31;5116368;28;20027;-67
2021/12/27 02:28:33;;;;;;;9.13;4.47;;;;;;;2.51;82.85;96178.81;5116469;28;20036;-64
2021/12/27 02:30:59;;;;;;;6.60;4.80;;;;;;;2.50;82.17;96172.78;5116460;28;20016;-65
2021/12/27 02:33:24;;;;;;;6.57;4.80;;;;;;;2.49;81.97;96173.66;5116536;28;20027;-65
2021/12/27 02:35:53;;;;;;;7.18;5.05;;;;;;;2.48;81.39;96169.38;5116373;28;20073;-64
2021/12/27 02:38:22;;;;;;;6.43;4.45;;;;;;;2.50;80.96;96171.94;5116368;28;20015;-65
2021/12/27 02:40:51;;;;;;;6.18;3.70;;;;;;;2.46;81.35;96163.38;5116285;28;20034;-66
2021/12/27 02:43:19;;;;;;;4.22;3.25;;;;;;;2.40;81.27;96166.88;5116135;28;20145;-68
2021/12/27 02:45:54;;;;;;;5.60;3.20;;;;;;;2.40;81.17;96169.47;5114643;28;20412;-66
2021/12/27 02:48:23;;;;;;;5.32;3.78;;;;;;;2.37;81.05;96168.63;5116096;28;20027;-67
2021/12/27 02:50:49;;;;;;;11.13;5.05;;;;;;;2.31;81.62;96163.53;5115955;28;20505;-69
2021/12/27 02:53:15;;;;;;;4.55;3.72;;;;;;;2.29;81.56;96157.53;5115916;28;20100;-67
2021/12/27 02:55:42;;;;;;;9.65;5.35;;;;;;;2.25;81.90;96161.88;5115968;28;20037;-66
2021/12/27 02:58:08;;;;;;;10.25;5.22;;;;;;;2.29;82.14;96165.28;5115959;27;20038;-64
2021/12/27 03:00:40;;;;;;;13.63;5.10;;;;;;;2.25;82.07;96161.88;5115823;27;20046;-64
2021/12/27 03:03:07;;;;;;;13.75;5.53;;;;;;;2.26;81.70;96164.44;5116026;27;20024;-64
2021/12/27 03:05:33;;;;;;;6.47;3.70;;;;;;;2.32;81.49;96176.41;5115785;28;20092;-62
2021/12/27 03:07:59;;;;;;;7.60;4.75;;;;;;;2.31;81.42;96168.69;5115667;28;20110;-64
2021/12/27 03:10:28;;;;;;;12.48;5.20;;;;;;;2.19;81.52;96173.13;5115794;27;20023;-65
2021/12/27 03:12:56;;;;;;;11.38;6.60;;;;;;;2.22;81.84;96172.22;5115497;28;20028;-65
2021/12/27 03:15:23;;;;;;;6.82;4.55;;;;;;;2.22;81.57;96169.66;5115664;28;20065;-64
2021/12/27 03:17:51;;;;;;;12.15;8.35;;;;;;;2.18;81.60;96171.44;5115515;28;20077;-68
2021/12/27 03:20:19;;;;;;;10.50;6.75;;;;;;;2.21;81.52;96173.09;5115450;28;20551;-66
2021/12/27 03:22:45;;;;;;;8.75;6.95;;;;;;;2.14;81.47;96162.84;5115280;28;20385;-65
2021/12/27 03:25:15;;;;;;;8.35;6.07;;;;;;;2.14;81.80;96169.75;5115178;28;20048;-67
2021/12/27 03:27:41;;;;;;;6.55;3.67;;;;;;;2.17;81.60;96168.84;5115360;28;20027;-65
2021/12/27 03:30:11;;;;;;;6.45;3.63;;;;;;;2.20;81.99;96172.25;5115328;28;20020;-64
2021/12/27 03:32:37;;;;;;;5.45;4.03;;;;;;;2.21;81.71;96173.09;5115114;28;20084;-67
2021/12/27 03:35:10;;;;;;;6.85;4.45;;;;;;;2.17;81.32;96177.47;5115038;28;20400;-67
2021/12/27 03:37:38;;;;;;;10.18;5.30;;;;;;;2.09;81.27;96172.38;5115243;28;20386;-67
2021/12/27 03:40:06;;;;;;;4.32;3.28;;;;;;;2.09;81.02;96174.09;5115079;28;20028;-67
2021/12/27 03:42:32;;;;;;;9.25;3.95;;;;;;;2.04;81.19;96166.41;5115216;27;20024;-67
2021/12/27 03:44:57;;;;;;;6.32;3.65;;;;;;;2.06;81.10;96162.09;5114985;27;20035;-64
2021/12/27 03:47:23;;;;;;;5.70;4.32;;;;;;;1.94;81.15;96157.91;5114848;28;20110;-66
2021/12/27 03:49:49;;;;;;;8.52;5.20;;;;;;;1.86;81.71;96159.69;5114874;28;20365;-64
2021/12/27 03:52:14;;;;;;;7.88;3.63;;;;;;;1.88;81.61;96155.38;5114822;28;20024;-64
2021/12/27 03:54:40;;;;;;;6.40;4.55;;;;;;;1.89;82.14;96149.34;5114879;28;20019;-67
2021/12/27 03:57:05;;;;;;;9.02;6.00;;;;;;;1.92;82.30;96153.63;5114134;28;20493;-63
2021/12/27 04:00:16;;;;;;;7.50;5.40;;;;;;;1.84;81.98;96146.81;5114693;28;20508;-68
2021/12/27 04:02:23;;;;;;;12.48;7.00;;;;;;;1.87;82.05;96162.25;5112483;28;20040;-67
2021/12/27 04:04:48;;;;;;;12.73;8.63;;;;;;;1.82;82.00;96161.44;5114689;28;20488;-65
2021/12/27 04:07:14;;;;;;;5.47;3.85;;;;;;;1.77;82.32;96158.03;5114498;28;20028;-64
2021/12/27 04:09:40;;;;;;;7.32;5.15;;;;;;;1.87;82.18;96164.00;5114430;28;20098;-65
2021/12/27 04:12:06;;;;;;;8.52;5.30;;;;;;;1.94;82.11;96162.19;5114338;28;20085;-69
2021/12/27 04:14:31;;;;;;;11.05;6.13;;;;;;;1.94;81.92;96167.34;5114451;28;20362;-62
2021/12/27 04:16:57;;;;;;;11.02;6.28;;;;;;;1.94;81.52;96175.09;5114433;28;20023;-65
2021/12/27 04:19:22;;;;;;;13.25;7.05;;;;;;;1.94;81.20;96167.34;5114330;28;20032;-66
2021/12/27 04:21:48;;;;;;;10.95;6.47;;;;;;;1.92;81.73;96169.94;5114289;28;20538;-64
2021/12/27 04:24:14;;;;;;;7.45;5.07;;;;;;;1.85;82.07;96169.16;5114014;28;20178;-68
2021/12/27 04:26:40;;;;;;;6.28;4.28;;;;;;;1.83;82.00;96168.31;5114135;28;20026;-63
2021/12/27 04:29:06;;;;;;;7.72;5.00;;;;;;;1.85;81.92;96163.16;5114169;28;20466;-63
2021/12/27 04:31:32;;;;;;;8.52;4.95;;;;;;;1.89;82.35;96167.41;5113982;28;20373;-63
2021/12/27 04:33:57;;;;;;;9.70;5.22;;;;;;;1.93;82.51;96169.09;5114074;28;20028;-67
2021/12/27 04:36:23;;;;;;;7.75;5.45;;;;;;;1.91;82.80;96165.66;5113991;28;20027;-64
2021/12/27 04:38:48;;;;;;;9.45;5.47;;;;;;;1.91;82.58;96165.66;5114082;28;20476;-66
2021/12/27 04:41:18;;;;;;;13.07;8.90;;;;;;;1.93;82.10;96168.22;5114062;28;20031;-64
2021/12/27 04:43:44;;;;;;;19.85;11.23;;;;;;;1.90;81.69;96163.97;5114046;28;20038;-64
2021/12/27 04:46:09;;;;;;;24.77;16.20;;;;;;;1.91;81.87;96167.38;5113749;28;20385;-64
2021/12/27 04:48:35;;;;;;;31.08;21.25;;;;;;;1.91;81.79;96170.84;5113884;28;20034;-67
2021/12/27 04:51:00;;;;;;;16.45;12.32;;;;;;;1.89;81.75;96172.56;5113725;28;20326;-67
2021/12/27 04:53:26;;;;;;;16.10;12.20;;;;;;;1.87;81.39;96164.81;5113719;28;20038;-66
2021/12/27 04:55:52;;;;;;;14.52;10.20;;;;;;;1.84;81.45;96172.59;5113701;28;20521;-63
2021/12/27 04:58:20;;;;;;;12.38;9.10;;;;;;;1.79;81.42;96179.53;5113785;28;20027;-66
2021/12/27 05:00:46;;;;;;;7.03;4.10;;;;;;;1.81;81.65;96169.22;5113747;28;20024;-65
2021/12/27 05:03:12;;;;;;;14.07;6.00;;;;;;;1.80;82.33;96172.66;5113771;28;20123;-63
2021/12/27 05:05:41;;;;;;;7.47;5.38;;;;;;;1.75;82.15;96168.38;5113612;28;20019;-63
2021/12/27 05:08:07;;;;;;;7.20;5.65;;;;;;;1.69;82.09;96171.03;5112697;28;20085;-67
2021/12/27 05:10:35;;;;;;;12.45;5.47;;;;;;;1.74;82.96;96163.22;5113396;28;20032;-64
2021/12/27 05:13:00;;;;;;;11.63;4.70;;;;;;;1.74;82.92;96174.41;5113419;28;20032;-68
2021/12/27 05:15:26;;;;;;;6.72;5.20;;;;;;;1.70;82.65;96164.13;5113588;28;20745;-66
2021/12/27 05:17:52;;;;;;;8.45;3.97;;;;;;;1.58;82.81;96160.81;5113692;28;20058;-67
2021/12/27 05:20:18;;;;;;;7.30;4.07;;;;;;;1.60;83.03;96163.38;5113348;28;20365;-65
2021/12/27 05:22:43;;;;;;;8.15;5.07;;;;;;;1.64;83.41;96165.06;5113449;28;20050;-64
2021/12/27 05:25:11;;;;;;;8.52;5.50;;;;;;;1.64;83.30;96160.75;5113234;28;20134;-65
2021/12/27 05:27:40;;;;;;;8.82;5.68;;;;;;;1.72;82.47;96160.66;5113547;28;20046;-66
2021/12/27 05:30:08;;;;;;;7.38;5.30;;;;;;;1.57;83.24;96159.09;5113476;28;20362;-67
2021/12/27 05:32:35;;;;;;;4.95;3.63;;;;;;;1.57;82.61;96177.16;5113429;28;20032;-64
2021/12/27 05:35:04;;;;;;;11.15;4.78;;;;;;;1.51;82.34;96167.72;5113354;28;20032;-65
2021/12/27 05:37:30;;;;;;;9.00;4.88;;;;;;;1.48;82.57;96169.47;5113273;28;20119;-64
2021/12/27 05:39:57;;;;;;;5.65;4.30;;;;;;;1.50;82.33;96178.91;5113452;28;20073;-63
2021/12/27 05:42:23;;;;;;;10.75;5.15;;;;;;;1.43;82.42;96169.53;5113360;28;20080;-65
2021/12/27 05:44:48;;;;;;;10.48;6.25;;;;;;;1.44;83.33;96166.06;5113201;28;20419;-67
2021/12/27 05:47:14;;;;;;;10.25;5.90;;;;;;;1.55;83.73;96180.59;5113287;28;20034;-67
2021/12/27 05:49:40;;;;;;;9.55;6.35;;;;;;;1.56;83.44;96187.47;5113283;28;20063;-67
2021/12/27 05:52:05;;;;;;;12.50;6.10;;;;;;;1.61;83.29;96177.97;5113211;28;20358;-65
2021/12/27 05:54:31;;;;;;;13.80;7.68;;;;;;;1.56;83.26;96172.84;5111799;28;20050;-66
2021/12/27 05:56:57;;;;;;;9.93;5.47;;;;;;;1.59;83.02;96171.94;5113143;28;20020;-68
2021/12/27 05:59:22;;;;;;;8.38;5.03;;;;;;;1.57;81.89;96169.41;5113143;28;20047;-67
2021/12/27 06:01:48;;;;;;;9.95;5.50;;;;;;;1.59;82.81;96175.41;5113287;28;20028;-66
2021/12/27 06:04:14;;;;;;;9.13;5.90;;;;;;;1.61;82.48;96175.38;5113292;28;20415;-65
2021/12/27 06:06:39;;;;;;;10.57;6.43;;;;;;;1.59;82.82;96179.69;5113032;28;20027;-63
2021/12/27 06:09:06;;;;;;;11.48;6.55;;;;;;;1.59;83.00;96182.28;5113013;28;20020;-65
2021/12/27 06:11:32;;;;;;;11.02;7.10;;;;;;;1.57;83.16;96173.72;5112886;28;20012;-64
2021/12/27 06:13:58;;;;;;;13.25;6.88;;;;;;;1.56;84.10;96182.31;5113096;28;20027;-64
2021/12/27 06:16:23;;;;;;;12.05;7.03;;;;;;;1.62;84.40;96177.97;5113113;28;20027;-65
2021/12/27 06:18:49;;;;;;;12.75;7.60;;;;;;;1.73;84.37;96184.75;5112930;28;20020;-66
2021/12/27 06:21:16;;;;;;;11.88;5.93;;;;;;;1.85;84.58;96191.53;5116000;28;20147;-66
2021/12/27 06:23:43;;;;;;;8.85;7.03;;;;;;;1.96;83.72;96188.84;5116261;28;20511;-65
2021/12/27 06:26:09;;;;;;;13.02;7.68;;;;;;;2.06;83.32;96194.78;5116506;28;20047;-64
2021/12/27 06:28:35;;;;;;;16.27;8.25;;;;;;;2.36;83.41;96196.19;5116556;28;20028;-62
2021/12/27 06:31:02;;;;;;;12.20;7.57;;;;;;;2.68;82.23;96198.41;5116434;28;20053;-65
2021/12/27 06:33:29;;;;;;;9.75;6.38;;;;;;;2.93;81.66;96192.94;5116281;27;20050;-64
2021/12/27 06:35:56;;;;;;;7.65;5.63;;;;;;;3.21;80.96;96196.00;5116326;28;20099;-70
2021/12/27 06:38:22;;;;;;;7.50;5.00;;;;;;;3.56;79.63;96193.78;5116460;28;20023;-65
2021/12/27 06:40:52;;;;;;;7.32;5.25;;;;;;;3.91;78.54;96197.50;5116257;28;20019;-65
2021/12/27 06:43:18;;;;;;;9.25;5.40;;;;;;;4.22;77.64;96201.31;5116083;28;20057;-65
2021/12/27 06:45:44;;;;;;;7.30;5.40;;;;;;;4.82;76.86;96202.75;5116177;28;20020;-67
2021/12/27 06:48:10;;;;;;;6.65;5.30;;;;;;;5.84;73.57;96201.38;5116087;28;20028;-67
2021/12/27 06:50:36;;;;;;;7.07;4.55;;;;;;;6.96;70.01;96206.25;5116196;28;20015;-65
2021/12/27 06:53:02;;;;;;;7.80;4.60;;;;;;;7.96;67.32;96209.28;5115901;28;20023;-66
2021/12/27 06:55:28;;;;;;;12.18;5.18;;;;;;;9.06;62.09;96222.03;5115870;28;20019;-70
2021/12/27 06:57:53;;;;;;;7.32;4.22;;;;;;;10.00;59.89;96213.25;5115920;28;20106;-63
2021/12/27 07:00:19;;;;;;;6.63;4.18;;;;;;;11.04;57.41;96210.59;5114620;28;20126;-64
2021/12/27 07:02:46;;;;;;;6.22;3.75;;;;;;;11.95;54.45;96211.69;5115894;28;20377;-66
2021/12/27 07:05:12;;;;;;;6.45;4.32;;;;;;;12.73;50.99;96205.19;5115718;28;20016;-68
2021/12/27 07:07:40;;;;;;;7.22;3.42;;;;;;;13.37;49.28;96202.69;5115640;28;20103;-69
2021/12/27 07:10:09;;;;;;;3.83;3.30;;;;;;;13.43;49.03;96209.41;5116041;27;20035;-67
2021/12/27 07:12:35;;;;;;;4.50;3.30;;;;;;;13.27;49.20;96199.72;5115800;28;20426;-67
2021/12/27 07:15:01;;;;;;;6.80;3.90;;;;;;;13.72;48.69;96199.06;5115724;28;20019;-66
2021/12/27 07:17:27;;;;;;;6.65;3.83;;;;;;;14.91;46.53;96192.28;5115533;28;20030;-61
2021/12/27 07:19:53;;;;;;;6.30;4.20;;;;;;;15.98;43.91;96187.38;5115429;28;20366;-64
2021/12/27 07:22:19;;;;;;;5.07;4.13;;;;;;;16.25;43.12;96177.72;5115461;28;20020;-65
2021/12/27 07:24:45;;;;;;;6.20;4.78;;;;;;;17.24;41.37;96179.88;5115247;28;20052;-68
2021/12/27 07:27:11;;;;;;;8.85;4.57;;;;;;;18.27;38.79;96173.34;5115522;28;20035;-65
2021/12/27 07:29:37;;;;;;;5.97;3.72;;;;;;;19.01;37.87;96179.28;5115425;28;20015;-69
2021/12/27 07:32:06;;;;;;;6.07;4.72;;;;;;;19.91;36.00;96174.00;5114383;28;20108;-67
2021/12/27 07:34:33;;;;;;;4.15;3.75;;;;;;;20.80;35.22;96172.00;5115202;28;20024;-63
2021/12/27 07:36:59;;;;;;;4.82;3.90;;;;;;;21.35;33.64;96178.00;5115200;28;20016;-65
2021/12/27 07:39:26;;;;;;;5.55;4.30;;;;;;;21.67;32.71;96181.47;5115037;28;20107;-67
2021/12/27 07:41:52;;;;;;;7.38;4.53;;;;;;;21.51;33.39;96179.31;5115116;28;20058;-65
2021/12/27 07:44:18;;;;;;;8.68;4.80;;;;;;;21.67;32.69;96176.16;5114886;28;20070;-67
2021/12/27 07:46:46;;;;;;;9.10;5.72;;;;;;;21.63;32.31;96177.38;5114934;28;20550;-67
2021/12/27 07:49:13;;;;;;;6.43;4.68;;;;;;;21.75;32.36;96178.97;5114879;28;20023;-63
2021/12/27 07:51:39;;;;;;;5.82;4.57;;;;;;;22.08;31.62;96174.25;5114811;28;20059;-67
2021/12/27 07:54:05;;;;;;;7.50;4.65;;;;;;;21.71;32.18;96183.69;5114910;28;20024;-67
2021/12/27 07:56:32;;;;;;;5.35;4.30;;;;;;;21.97;32.15;96171.72;5114754;28;20123;-66
2021/12/27 07:59:03;;;;;;;6.05;4.50;;;;;;;22.19;31.32;96167.09;5114590;28;20016;-68
2021/12/27 08:01:37;;;;;;;9.05;5.28;;;;;;;22.71;30.91;96165.94;5114541;28;20370;-69
2021/12/27 08:04:05;;;;;;;6.70;4.65;;;;;;;22.46;30.75;96174.38;5114615;28;20473;-68
2021/12/27 08:06:32;;;;;;;5.63;4.30;;;;;;;22.18;31.63;96166.25;5114426;28;20031;-63
2021/12/27 08:08:58;;;;;;;6.32;4.82;;;;;;;22.26;31.40;96162.03;5114492;28;20461;-70
2021/12/27 08:11:26;;;;;;;6.88;5.70;;;;;;;22.94;30.41;96161.09;5114484;28;20103;-67
2021/12/27 08:13:53;;;;;;;6.93;4.60;;;;;;;22.86;30.99;96161.00;5114344;28;20023;-65
2021/12/27 08:16:23;;;;;;;12.10;5.43;;;;;;;22.68;31.00;96150.25;5114396;28;20124;-68
2021/12/27 08:18:52;;;;;;;5.68;4.53;;;;;;;22.82;30.70;96154.28;5114395;28;20055;-66
2021/12/27 08:21:21;;;;;;;19.42;14.63;;;;;;;23.23;30.31;96159.31;5114348;28;20474;-70
2021/12/27 08:23:48;;;;;;;7.25;6.15;;;;;;;23.34;30.13;96152.94;5113966;28;20430;-66
2021/12/27 08:26:14;;;;;;;6.78;5.00;;;;;;;23.07;30.65;96151.94;5112901;28;20088;-62
2021/12/27 08:28:42;;;;;;;5.82;4.63;;;;;;;22.40;31.49;96147.47;5114029;28;20461;-65
2021/12/27 08:31:08;;;;;;;6.93;5.28;;;;;;;21.10;33.41;96158.03;5114106;28;20032;-66
2021/12/27 08:33:34;;;;;;;8.35;5.80;;;;;;;19.41;36.45;96150.59;5113841;28;20051;-69
2021/12/27 08:36:01;;;;;;;8.82;5.82;;;;;;;18.31;38.19;96150.97;5114101;28;20031;-69
2021/12/27 08:38:27;;;;;;;8.27;6.10;;;;;;;17.56;39.50;96158.22;5113997;28;20019;-65
2021/12/27 08:40:53;;;;;;;7.57;6.30;;;;;;;16.77;40.85;96146.94;5113838;28;20038;-61
2021/12/27 08:43:19;;;;;;;16.48;10.73;;;;;;;16.05;42.66;96145.63;5113560;28;20042;-67
2021/12/27 08:45:45;;;;;;;15.90;10.38;;;;;;;15.44;44.41;96156.56;5114051;28;20024;-63
2021/12/27 08:48:15;;;;;;;14.90;11.32;;;;;;;14.95;46.42;96151.63;5112607;28;20035;-68
2021/12/27 08:50:42;;;;;;;11.52;8.52;;;;;;;14.61;48.24;96151.03;5113641;28;20185;-66
2021/12/27 08:53:09;;;;;;;12.68;9.35;;;;;;;14.17;49.74;96143.06;5113673;28;20035;-62
2021/12/27 08:55:37;;;;;;;17.23;10.43;;;;;;;13.78;50.77;96142.66;5113679;28;20024;-64
2021/12/27 08:58:04;;;;;;;16.85;10.55;;;;;;;13.46;51.75;96151.41;5113690;28;20019;-64
2021/12/27 09:00:31;;;;;;;18.08;12.30;;;;;;;13.28;52.22;96150.69;5113384;28;20023;-64
2021/12/27 09:03:00;;;;;;;22.85;11.90;;;;;;;13.37;52.62;96146.69;5113613;28;20032;-63
2021/12/27 09:05:27;;;;;;;23.13;13.43;;;;;;;13.72;51.50;96122.00;5113638;28;20043;-64
2021/12/27 09:07:53;;;;;;;20.15;13.10;;;;;;;13.82;51.89;96123.16;5113488;28;20031;-64
2021/12/27 09:10:22;;;;;;;20.42;13.13;;;;;;;13.73;52.91;96121.91;5113111;28;20028;-67
2021/12/27 09:12:48;;;;;;;17.15;12.60;;;;;;;13.69;53.00;96128.28;5113489;28;20034;-66
2021/12/27 09:15:15;;;;;;;17.60;12.10;;;;;;;13.67;53.06;96124.06;5113561;28;20052;-64
2021/12/27 09:17:42;;;;;;;17.92;11.23;;;;;;;13.56;53.57;96122.88;5113348;28;20024;-67
2021/12/27 09:20:09;;;;;;;19.05;11.30;;;;;;;13.48;54.69;96119.78;5113612;28;20020;-62
2021/12/27 09:22:37;;;;;;;17.60;11.43;;;;;;;13.36;55.48;96126.59;5113406;28;20023;-66
2021/12/27 09:25:05;;;;;;;15.30;11.32;;;;;;;13.44;55.77;96124.38;5113263;28;20478;-62
2021/12/27 09:27:31;;;;;;;15.32;10.73;;;;;;;13.56;55.47;96122.88;5113312;28;20028;-65
2021/12/27 09:29:56;;;;;;;18.90;10.93;;;;;;;13.56;55.75;96115.00;5113443;28;20020;-66
2021/12/27 09:32:23;;;;;;;20.40;10.48;;;;;;;13.44;56.33;96119.13;5113315;28;20028;-66
2021/12/27 09:34:50;;;;;;;21.92;10.77;;;;;;;13.37;56.50;96116.00;5113424;28;20068;-66
2021/12/27 09:37:16;;;;;;;14.63;10.23;;;;;;;13.18;56.98;96120.59;5113336;28;20031;-68
2021/12/27 09:39:53;;;;;;;17.35;9.88;;;;;;;13.16;57.02;96122.44;5113171;28;20591;-62
2021/12/27 09:42:25;;;;;;;14.75;9.52;;;;;;;12.87;57.59;96123.97;5113249;28;20376;-64
2021/12/27 09:44:53;;;;;;;16.35;9.52;;;;;;;12.58;58.62;96120.28;5113322;28;20089;-62
2021/12/27 09:47:19;;;;;;;20.65;9.88;;;;;;;12.46;58.96;96121.78;5113303;28;20036;-64
2021/12/27 09:49:50;;;;;;;13.63;9.05;;;;;;;12.42;59.33;96118.44;5113085;28;20384;-66
2021/12/27 09:52:16;;;;;;;11.30;8.90;;;;;;;12.40;59.36;96115.03;5112954;28;20370;-64
2021/12/27 09:54:49;;;;;;;17.55;8.48;;;;;;;12.41;59.51;96111.50;5114053;28;20478;-63
2021/12/27 09:57:16;;;;;;;11.98;8.35;;;;;;;12.43;59.95;96103.56;5117289;28;20040;-64
2021/12/27 09:59:43;;;;;;;12.38;7.30;;;;;;;12.48;59.64;96109.41;5117202;28;20043;-67
2021/12/27 10:02:12;;;;;;;16.13;8.75;;;;;;;12.47;59.72;96108.56;5117015;28;20076;-66
2021/12/27 10:04:38;;;;;;;10.60;8.32;;;;;;;12.43;59.65;96104.41;5116868;28;20038;-64
2021/12/27 10:07:04;;;;;;;13.77;8.57;;;;;;;12.38;59.93;96106.44;5117065;28;20027;-67
2021/12/27 10:09:35;;;;;;;13.93;7.70;;;;;;;12.42;60.10;96101.84;5116903;28;20118;-67
2021/12/27 10:12:03;;;;;;;13.48;8.30;;;;;;;12.43;59.94;96104.41;5116788;28;20124;-68
2021/12/27 10:14:33;;;;;;;12.15;8.18;;;;;;;12.37;59.84;96107.34;5116717;28;20030;-64
2021/12/27 10:17:10;;;;;;;15.57;7.95;;;;;;;12.27;59.94;96109.59;5116917;28;20062;-68
2021/12/27 10:19:37;;;;;;;17.80;11.40;;;;;;;12.23;60.10;96106.31;5116897;28;20031;-64
2021/12/27 10:22:03;;;;;;;26.92;16.52;;;;;;;12.10;60.56;96087.72;5116650;28;20045;-65
2021/12/27 10:24:30;;;;;;;20.98;11.85;;;;;;;12.22;60.67;96098.53;5116454;28;20127;-63
2021/12/27 10:27:00;;;;;;;14.15;9.63;;;;;;;12.23;61.11;96093.19;5116582;28;20031;-67
2021/12/27 10:29:33;;;;;;;14.30;9.57;;;;;;;12.31;60.76;96084.91;5116633;28;20432;-66
2021/12/27 10:32:05;;;;;;;9.23;7.30;;;;;;;12.34;60.57;96083.91;5116521;28;20107;-62
2021/12/27 10:34:40;;;;;;;9.55;7.55;;;;;;;12.40;60.73;96074.88;5116437;28;20039;-66
2021/12/27 10:37:08;;;;;;;13.38;8.15;;;;;;;12.51;60.14;96073.38;5116329;28;20027;-65
2021/12/27 10:39:41;;;;;;;11.90;7.60;;;;;;;12.63;59.68;96066.63;5116324;28;20027;-65
2021/12/27 10:42:08;;;;;;;10.45;7.75;;;;;;;12.62;59.80;96074.56;5116360;28;20024;-65
2021/12/27 10:44:36;;;;;;;15.38;8.77;;;;;;;12.61;59.64;96071.09;5116324;28;20020;-68
2021/12/27 10:47:04;;;;;;;13.23;8.32;;;;;;;12.65;59.50;96058.66;5116261;28;20073;-62
2021/12/27 10:49:47;;;;;;;15.02;8.68;;;;;;;12.70;58.73;96056.63;5116241;28;20482;-64
2021/12/27 10:52:13;;;;;;;11.75;7.68;;;;;;;12.71;59.07;96054.88;5116037;28;20027;-64
2021/12/27 10:54:39;;;;;;;8.65;7.43;;;;;;;12.81;58.49;96056.06;5115988;28;20055;-61
2021/12/27 10:57:06;;;;;;;13.10;7.60;;;;;;;12.88;58.52;96052.16;5116017;28;20027;-62
2021/12/27 10:59:39;;;;;;;8.63;6.90;;;;;;;12.96;58.39;96040.38;5116102;28;20069;-66
2021/12/27 11:02:13;;;;;;;14.82;7.10;;;;;;;13.07;57.96;96039.78;5115844;28;20047;-69
2021/12/27 11:04:39;;;;;;;11.02;7.07;;;;;;;13.23;57.58;96040.63;5115888;28;20027;-65
2021/12/27 11:07:06;;;;;;;9.57;6.95;;;;;;;13.30;57.78;96033.22;5115870;28;20070;-64
2021/12/27 11:09:35;;;;;;;11.23;6.47;;;;;;;13.28;57.99;96032.47;5115936;28;20016;-62
2021/12/27 11:12:02;;;;;;;9.73;7.60;;;;;;;13.32;57.34;96027.88;5115792;28;20026;-61
2021/12/27 11:14:28;;;;;;;9.98;7.68;;;;;;;13.37;57.29;96031.09;5115618;28;20020;-65
2021/12/27 11:16:55;;;;;;;10.65;7.38;;;;;;;13.36;57.73;96019.75;5115545;28;20027;-67
2021/12/27 11:19:23;;;;;;;15.13;6.78;;;;;;;13.43;57.13;96016.78;5115592;28;20096;-67
2021/12/27 11:21:50;;;;;;;8.73;6.78;;;;;;;13.42;57.98;96013.28;5115649;28;20036;-60
2021/12/27 11:24:19;;;;;;;10.95;5.65;;;;;;;13.40;56.97;96005.50;5115086;28;20427;-64
2021/12/27 11:26:45;;;;;;;11.57;5.93;;;;;;;13.21;57.24;96000.47;5115358;28;20020;-62
2021/12/27 11:29:22;;;;;;;17.45;6.90;;;;;;;13.32;57.92;95999.84;5115712;28;20023;-64
2021/12/27 11:31:52;;;;;;;13.35;7.38;;;;;;;13.32;57.69;95999.00;5115354;28;20522;-67
2021/12/27 11:34:19;;;;;;;11.23;6.93;;;;;;;13.26;57.59;96002.81;5115232;28;20031;-63
2021/12/27 11:36:55;;;;;;;9.90;6.20;;;;;;;13.24;58.25;95995.03;5115298;28;20111;-62
2021/12/27 11:39:36;;;;;;;11.98;7.20;;;;;;;13.17;58.42;96000.72;5115395;28;20039;-62